createdAt,value
2022-10-03T00:03:33.894Z,102417.25
2022-10-03T00:08:54.359Z,102435.34
2022-10-03T00:14:06.155Z,102434.09
2022-10-03T00:19:58.803Z,102439.97
2022-10-03T00:25:19.130Z,102443.59
2022-10-03T00:30:40.416Z,102440.25
2022-10-03T00:36:17.253Z,102444.47
2022-10-03T00:41:40.375Z,102459.19
2022-10-03T00:47:36.675Z,102462.25
2022-10-03T00:52:56.578Z,102471.88
2022-10-03T00:58:07.260Z,102484.69
2022-10-03T01:03:26.844Z,102483.97
2022-10-03T01:08:34.404Z,102483.81
2022-10-03T01:13:54.901Z,102476.00
2022-10-03T01:19:04.689Z,102480.66
2022-10-03T01:24:41.865Z,102475.44
2022-10-03T01:30:17.495Z,102483.00
2022-10-03T01:35:42.273Z,102485.06
2022-10-03T01:40:53.566Z,102485.53
2022-10-03T01:46:10.317Z,102484.59
2022-10-03T01:51:21.751Z,102486.63
2022-10-03T01:56:34.413Z,102498.00
2022-10-03T02:01:57.898Z,102484.38
2022-10-03T02:07:36.076Z,102488.88
2022-10-03T02:12:52.232Z,102491.22
2022-10-03T02:18:16.141Z,102483.63
2022-10-03T02:23:31.929Z,102489.69
2022-10-03T02:29:18.366Z,102492.16
2022-10-03T02:34:44.678Z,102492.88
2022-10-03T02:40:05.218Z,102492.91
2022-10-03T02:45:22.372Z,102487.09
2022-10-03T02:50:56.446Z,102489.16
2022-10-03T02:56:33.243Z,102508.16
2022-10-03T03:02:01.166Z,102503.09
2022-10-03T03:07:15.109Z,102495.69
2022-10-03T03:12:23.450Z,102499.88
2022-10-03T03:17:57.131Z,102507.16
2022-10-03T03:23:46.612Z,102508.47
2022-10-03T03:29:01.315Z,102506.63
2022-10-03T03:34:27.891Z,102502.53
2022-10-03T03:39:48.004Z,102513.91
2022-10-03T03:44:58.795Z,102502.84
2022-10-03T03:50:28.719Z,102508.94
2022-10-03T03:55:48.820Z,102506.41
2022-10-03T04:01:09.020Z,102511.31
2022-10-03T04:06:47.082Z,102523.91
2022-10-03T04:11:57.653Z,102526.22
2022-10-03T04:17:23.901Z,102523.59
2022-10-03T04:22:48.800Z,102516.34
2022-10-03T04:28:18.480Z,102517.09
2022-10-03T04:33:52.097Z,102529.28
2022-10-03T04:39:06.870Z,102532.81
2022-10-03T04:44:18.027Z,102529.13
2022-10-03T04:49:32.238Z,102537.84
2022-10-03T04:54:39.710Z,102538.97
2022-10-03T04:59:54.492Z,102541.31
2022-10-03T05:05:24.240Z,102547.38
2022-10-03T05:10:41.624Z,102545.34
2022-10-03T05:16:19.903Z,102540.13
2022-10-03T05:21:36.723Z,102523.69
2022-10-03T05:26:46.863Z,102525.50
2022-10-03T05:31:55.983Z,102524.22
2022-10-03T05:37:46.563Z,102528.16
2022-10-03T05:42:55.349Z,102537.22
2022-10-03T05:48:43.543Z,102531.50
2022-10-03T05:54:13.220Z,102531.03
2022-10-03T05:59:46.107Z,102534.22
2022-10-03T06:05:14.110Z,102537.41
2022-10-03T06:10:50.986Z,102540.00
2022-10-03T06:16:09.429Z,102537.09
2022-10-03T06:21:23.744Z,102541.75
2022-10-03T06:26:31.490Z,102553.06
2022-10-03T06:31:57.571Z,102565.16
2022-10-03T06:37:08.397Z,102559.75
2022-10-03T06:42:31.075Z,102556.84
2022-10-03T06:48:04.048Z,102553.63
2022-10-03T06:53:15.690Z,102564.69
2022-10-03T06:58:33.310Z,102561.19
2022-10-03T07:03:56.737Z,102562.31
2022-10-03T07:09:04.362Z,102565.78
2022-10-03T07:14:26.874Z,102579.78
2022-10-03T07:19:54.927Z,102581.94
2022-10-03T07:25:08.635Z,102593.22
2022-10-03T07:30:24.111Z,102599.78
2022-10-03T07:36:09.528Z,102590.47
2022-10-03T07:41:28.196Z,102594.19
2022-10-03T07:46:54.967Z,102591.88
2022-10-03T07:52:34.118Z,102598.53
2022-10-03T07:57:50.944Z,102606.94
2022-10-03T08:03:04.996Z,102610.16
2022-10-03T08:08:19.169Z,102608.66
2022-10-03T08:13:35.823Z,102621.25
2022-10-03T08:18:52.616Z,102622.13
2022-10-03T08:24:28.599Z,102625.44
2022-10-03T08:29:39.335Z,102634.63
2022-10-03T08:34:59.590Z,102637.56
2022-10-03T08:40:38.640Z,102634.91
2022-10-03T08:45:51.989Z,102633.94
2022-10-03T08:51:14.711Z,102628.00
2022-10-03T08:56:54.313Z,102621.44
2022-10-03T09:02:33.121Z,102625.06
2022-10-03T09:07:52.979Z,102618.94
2022-10-03T09:13:12.338Z,102625.69
2022-10-03T09:18:41.765Z,102625.41
2022-10-03T09:24:29.830Z,102623.84
2022-10-03T09:29:59.755Z,102626.25
2022-10-03T09:35:39.317Z,102624.00
2022-10-03T09:40:59.600Z,102622.25
2022-10-03T09:46:13.678Z,102612.72
2022-10-03T09:51:29.436Z,102614.34
2022-10-03T09:56:33.717Z,102604.97
2022-10-03T10:01:57.414Z,102600.13
2022-10-03T10:07:37.584Z,102606.47
2022-10-03T10:12:45.094Z,102613.25
2022-10-03T10:18:01.820Z,102611.94
2022-10-03T10:23:42.323Z,102616.22
2022-10-03T10:28:49.839Z,102617.28
2022-10-03T10:34:09.940Z,102607.78
2022-10-03T10:39:22.557Z,102615.75
2022-10-03T10:44:30.285Z,102603.69
2022-10-03T10:50:05.856Z,102603.72
2022-10-03T10:55:35.297Z,102597.69
2022-10-03T11:00:58.591Z,102603.88
2022-10-03T11:06:53.580Z,102603.66
2022-10-03T11:12:14.173Z,102617.69
2022-10-03T11:17:39.053Z,102614.84
2022-10-03T11:23:04.734Z,102612.59
2022-10-03T11:28:19.296Z,102605.47
2022-10-03T11:34:07.409Z,102606.34
2022-10-03T11:39:49.884Z,102597.25
2022-10-03T11:45:20.051Z,102598.28
2022-10-03T11:50:30.766Z,102603.63
2022-10-03T11:55:51.611Z,102602.00
2022-10-03T12:01:02.040Z,102604.53
2022-10-03T12:06:32.176Z,102605.72
2022-10-03T12:11:41.844Z,102598.59
2022-10-03T12:17:08.183Z,102589.03
2022-10-03T12:22:27.044Z,102581.41
2022-10-03T12:28:02.494Z,102582.56
2022-10-03T12:33:22.443Z,102571.31
2022-10-03T12:38:34.045Z,102563.94
2022-10-03T12:44:10.417Z,102569.28
2022-10-03T12:49:39.355Z,102564.28
2022-10-03T12:55:05.703Z,102562.28
2022-10-03T13:00:21.005Z,102570.81
2022-10-03T13:05:34.960Z,102566.31
2022-10-03T13:10:47.729Z,102565.97
2022-10-03T13:16:04.494Z,102567.03
2022-10-03T13:21:43.902Z,102553.34
2022-10-03T13:26:44.885Z,102557.25
2022-10-03T13:32:06.824Z,102555.66
2022-10-03T13:37:41.600Z,102555.88
2022-10-03T13:42:47.168Z,102546.84
2022-10-03T13:47:48.744Z,102539.03
2022-10-03T13:53:11.386Z,102535.22
2022-10-03T13:58:50.465Z,102522.56
2022-10-03T14:04:29.803Z,102531.88
2022-10-03T14:09:54.343Z,102530.00
2022-10-03T14:15:14.223Z,102525.81
2022-10-03T14:20:49.656Z,102527.38
2022-10-03T14:26:15.688Z,102513.19
2022-10-03T14:31:34.966Z,102507.13
2022-10-03T14:36:47.347Z,102495.94
2022-10-03T14:41:55.065Z,102494.28
2022-10-03T14:47:02.891Z,102491.84
2022-10-03T14:52:28.744Z,102482.13
2022-10-03T14:57:43.654Z,102481.84
2022-10-03T15:02:54.895Z,102472.44
2022-10-03T15:07:56.771Z,102472.28
2022-10-03T15:13:07.149Z,102473.63
2022-10-03T15:18:16.911Z,102462.88
2022-10-03T15:23:25.705Z,102463.78
2022-10-03T15:28:45.987Z,102459.25
2022-10-03T15:33:52.196Z,102456.31
2022-10-03T15:38:58.013Z,102460.38
2022-10-03T15:44:22.081Z,102462.59
2022-10-03T15:49:30.472Z,102456.22
2022-10-03T15:54:38.675Z,102451.38
2022-10-03T15:59:45.332Z,102448.91
2022-10-03T16:04:48.367Z,102437.97
2022-10-03T16:10:06.717Z,102425.31
2022-10-03T16:15:54.850Z,102432.63
2022-10-03T16:20:59.011Z,102428.47
2022-10-03T16:26:23.179Z,102414.78
2022-10-03T16:31:28.818Z,102412.19
2022-10-03T16:36:40.671Z,102405.38
2022-10-03T16:41:44.108Z,102408.72
2022-10-03T16:46:47.213Z,102408.22
2022-10-03T16:52:06.247Z,102402.34
2022-10-03T16:57:21.124Z,102400.75
2022-10-03T17:02:28.393Z,102398.72
2022-10-03T17:07:37.140Z,102391.81
2022-10-03T17:12:45.325Z,102398.75
2022-10-03T17:17:50.214Z,102389.91
2022-10-03T17:23:01.414Z,102390.63
2022-10-03T17:28:08.574Z,102395.84
2022-10-03T17:33:20.014Z,102389.47
2022-10-03T17:38:59.265Z,102391.34
2022-10-03T17:44:30.476Z,102400.91
2022-10-03T17:50:29.277Z,102393.44
2022-10-03T17:56:09.877Z,102385.31
2022-10-03T18:01:29.261Z,102384.81
2022-10-03T18:07:24.341Z,102373.38
2022-10-03T18:12:42.722Z,102369.56
2022-10-03T18:18:18.598Z,102377.16
2022-10-03T18:24:16.572Z,102361.03
2022-10-03T18:35:44.335Z,102364.34
2022-10-03T18:41:22.839Z,102352.41
2022-10-03T18:46:41.077Z,102350.31
2022-10-03T18:52:00.591Z,102336.78
2022-10-03T18:57:38.761Z,102351.34
2022-10-03T19:03:01.859Z,102339.94
2022-10-03T19:08:40.980Z,102343.88
2022-10-03T19:13:54.726Z,102335.75
2022-10-03T19:19:02.494Z,102338.34
2022-10-03T19:24:53.534Z,102330.88
2022-10-03T19:29:55.348Z,102334.34
2022-10-03T19:35:01.969Z,102336.97
2022-10-03T19:40:13.534Z,102337.13
2022-10-03T19:45:17.891Z,102338.34
2022-10-03T19:50:27.425Z,102345.81
2022-10-03T19:55:37.371Z,102349.78
2022-10-03T20:00:40.442Z,102349.59
2022-10-03T20:06:19.738Z,102334.03
2022-10-03T20:11:38.321Z,102328.81
2022-10-03T20:17:02.592Z,102334.69
2022-10-03T20:22:05.772Z,102342.34
2022-10-03T20:27:38.526Z,102346.28
2022-10-03T20:32:44.889Z,102334.34
2022-10-03T20:38:03.758Z,102346.78
2022-10-03T20:43:41.705Z,102350.09
2022-10-03T20:49:21.978Z,102346.78
2022-10-03T20:54:26.578Z,102342.66
2022-10-03T21:00:10.874Z,102334.69
2022-10-03T21:05:33.784Z,102324.63
2022-10-03T21:10:47.417Z,102328.22
2022-10-03T21:15:53.707Z,102322.34
2022-10-03T21:21:10.423Z,102322.16
2022-10-03T21:26:13.124Z,102318.34
2022-10-03T21:31:28.001Z,102309.88
2022-10-03T21:36:50.071Z,102300.66
2022-10-03T21:42:01.456Z,102290.91
2022-10-03T21:47:21.965Z,102280.53
2022-10-03T21:52:23.574Z,102265.28
2022-10-03T21:57:51.426Z,102256.47
2022-10-03T22:03:11.537Z,102252.84
2022-10-03T22:08:24.694Z,102253.69
2022-10-03T22:13:31.722Z,102246.97
2022-10-03T22:18:59.643Z,102250.75
2022-10-03T22:24:06.343Z,102251.13
2022-10-03T22:29:28.401Z,102240.75
2022-10-03T22:34:48.571Z,102241.56
2022-10-03T22:39:51.132Z,102238.28
2022-10-03T22:44:54.719Z,102228.06
2022-10-03T22:50:02.407Z,102226.50
2022-10-03T22:55:08.519Z,102230.66
2022-10-03T23:00:13.371Z,102231.84
2022-10-03T23:05:40.408Z,102235.31
2022-10-03T23:10:50.783Z,102219.72
2022-10-03T23:16:01.765Z,102220.56
2022-10-03T23:21:09.751Z,102216.25
2022-10-03T23:26:39.143Z,102203.25
2022-10-03T23:31:58.382Z,102208.78
2022-10-03T23:37:15.253Z,102191.34
2022-10-03T23:42:27.484Z,102179.56
2022-10-03T23:48:03.094Z,102172.13
2022-10-03T23:53:07.055Z,102171.78
2022-10-03T23:58:24.802Z,102161.03
